sensor_id;sensor_type;location;lat;lon;timestamp;P1;durP1;ratioP1;P2;durP2;ratioP2
51692;SDS011;37777;53.066;21.638;2023-03-11T00:03:35;61.20;;;24.33;;
51692;SDS011;37777;53.066;21.638;2023-03-11T00:10:38;60.00;;;25.35;;
51692;SDS011;37777;53.066;21.638;2023-03-11T00:17:42;49.40;;;21.77;;
51692;SDS011;37777;53.066;21.638;2023-03-11T00:24:44;49.22;;;23.05;;
51692;SDS011;37777;53.066;21.638;2023-03-11T00:31:46;53.88;;;22.63;;
51692;SDS011;37777;53.066;21.638;2023-03-11T00:38:48;52.33;;;24.42;;
51692;SDS011;37777;53.066;21.638;2023-03-11T00:45:51;56.88;;;22.80;;
51692;SDS011;37777;53.066;21.638;2023-03-11T00:52:53;50.85;;;21.75;;
51692;SDS011;37777;53.066;21.638;2023-03-11T00:59:55;47.10;;;21.13;;
51692;SDS011;37777;53.066;21.638;2023-03-11T01:06:57;51.15;;;22.40;;
51692;SDS011;37777;53.066;21.638;2023-03-11T01:13:59;43.90;;;20.42;;
51692;SDS011;37777;53.066;21.638;2023-03-11T01:21:01;45.25;;;19.27;;
51692;SDS011;37777;53.066;21.638;2023-03-11T01:28:04;45.67;;;19.50;;
51692;SDS011;37777;53.066;21.638;2023-03-11T01:35:09;45.13;;;20.50;;
51692;SDS011;37777;53.066;21.638;2023-03-11T01:42:13;44.53;;;20.08;;
51692;SDS011;37777;53.066;21.638;2023-03-11T01:49:15;43.50;;;18.55;;
51692;SDS011;37777;53.066;21.638;2023-03-11T01:56:19;43.10;;;18.58;;
51692;SDS011;37777;53.066;21.638;2023-03-11T02:03:26;36.95;;;16.42;;
51692;SDS011;37777;53.066;21.638;2023-03-11T02:10:31;34.90;;;16.65;;
51692;SDS011;37777;53.066;21.638;2023-03-11T02:17:33;33.30;;;16.70;;
51692;SDS011;37777;53.066;21.638;2023-03-11T02:31:47;33.30;;;15.15;;
51692;SDS011;37777;53.066;21.638;2023-03-11T02:38:50;28.38;;;15.63;;
51692;SDS011;37777;53.066;21.638;2023-03-11T02:45:52;31.85;;;14.98;;
51692;SDS011;37777;53.066;21.638;2023-03-11T02:52:55;38.28;;;16.65;;
51692;SDS011;37777;53.066;21.638;2023-03-11T02:59:57;34.70;;;15.25;;
51692;SDS011;37777;53.066;21.638;2023-03-11T03:07:00;31.45;;;15.65;;
51692;SDS011;37777;53.066;21.638;2023-03-11T03:14:02;33.72;;;16.88;;
51692;SDS011;37777;53.066;21.638;2023-03-11T03:21:04;31.73;;;14.90;;
51692;SDS011;37777;53.066;21.638;2023-03-11T03:28:06;31.58;;;14.43;;
51692;SDS011;37777;53.066;21.638;2023-03-11T03:35:08;36.88;;;16.42;;
51692;SDS011;37777;53.066;21.638;2023-03-11T03:42:11;36.55;;;15.93;;
51692;SDS011;37777;53.066;21.638;2023-03-11T03:49:13;45.63;;;16.33;;
51692;SDS011;37777;53.066;21.638;2023-03-11T03:56:15;38.85;;;15.77;;
51692;SDS011;37777;53.066;21.638;2023-03-11T04:03:18;35.28;;;16.80;;
51692;SDS011;37777;53.066;21.638;2023-03-11T04:10:20;39.47;;;16.35;;
51692;SDS011;37777;53.066;21.638;2023-03-11T04:17:22;38.72;;;16.17;;
51692;SDS011;37777;53.066;21.638;2023-03-11T04:24:24;37.25;;;16.13;;
51692;SDS011;37777;53.066;21.638;2023-03-11T04:31:26;31.80;;;16.17;;
51692;SDS011;37777;53.066;21.638;2023-03-11T04:38:28;38.42;;;17.00;;
51692;SDS011;37777;53.066;21.638;2023-03-11T04:45:30;29.05;;;14.90;;
51692;SDS011;37777;53.066;21.638;2023-03-11T04:52:32;39.38;;;15.30;;
51692;SDS011;37777;53.066;21.638;2023-03-11T04:59:35;33.42;;;15.65;;
51692;SDS011;37777;53.066;21.638;2023-03-11T05:06:37;38.22;;;14.23;;
51692;SDS011;37777;53.066;21.638;2023-03-11T05:13:39;30.50;;;15.02;;
51692;SDS011;37777;53.066;21.638;2023-03-11T05:20:41;37.95;;;16.15;;
51692;SDS011;37777;53.066;21.638;2023-03-11T05:27:43;45.15;;;21.17;;
51692;SDS011;37777;53.066;21.638;2023-03-11T05:34:45;40.72;;;20.77;;
51692;SDS011;37777;53.066;21.638;2023-03-11T05:41:47;37.30;;;20.27;;
51692;SDS011;37777;53.066;21.638;2023-03-11T05:48:49;35.45;;;16.45;;
51692;SDS011;37777;53.066;21.638;2023-03-11T05:55:55;49.92;;;20.95;;
51692;SDS011;37777;53.066;21.638;2023-03-11T06:02:58;52.00;;;19.67;;
51692;SDS011;37777;53.066;21.638;2023-03-11T06:10:00;64.82;;;23.77;;
51692;SDS011;37777;53.066;21.638;2023-03-11T06:17:03;41.60;;;19.95;;
51692;SDS011;37777;53.066;21.638;2023-03-11T06:24:05;40.78;;;18.27;;
51692;SDS011;37777;53.066;21.638;2023-03-11T06:31:11;50.55;;;19.88;;
51692;SDS011;37777;53.066;21.638;2023-03-11T06:38:16;38.58;;;19.77;;
51692;SDS011;37777;53.066;21.638;2023-03-11T06:45:18;52.88;;;22.17;;
51692;SDS011;37777;53.066;21.638;2023-03-11T06:52:21;36.30;;;17.42;;
51692;SDS011;37777;53.066;21.638;2023-03-11T06:59:23;41.88;;;20.08;;
51692;SDS011;37777;53.066;21.638;2023-03-11T07:06:25;49.28;;;19.85;;
51692;SDS011;37777;53.066;21.638;2023-03-11T07:13:28;29.02;;;14.70;;
51692;SDS011;37777;53.066;21.638;2023-03-11T07:20:30;34.78;;;15.25;;
51692;SDS011;37777;53.066;21.638;2023-03-11T07:27:32;33.38;;;17.40;;
51692;SDS011;37777;53.066;21.638;2023-03-11T07:34:34;31.33;;;14.80;;
51692;SDS011;37777;53.066;21.638;2023-03-11T07:41:36;45.80;;;19.20;;
51692;SDS011;37777;53.066;21.638;2023-03-11T07:48:38;41.60;;;15.90;;
51692;SDS011;37777;53.066;21.638;2023-03-11T07:55:41;37.50;;;19.00;;
51692;SDS011;37777;53.066;21.638;2023-03-11T08:02:43;38.28;;;15.00;;
51692;SDS011;37777;53.066;21.638;2023-03-11T08:09:45;19.40;;;7.47;;
51692;SDS011;37777;53.066;21.638;2023-03-11T08:16:47;21.20;;;10.80;;
51692;SDS011;37777;53.066;21.638;2023-03-11T08:23:49;27.63;;;11.90;;
51692;SDS011;37777;53.066;21.638;2023-03-11T08:30:52;11.82;;;7.65;;
51692;SDS011;37777;53.066;21.638;2023-03-11T08:37:54;33.08;;;15.90;;
51692;SDS011;37777;53.066;21.638;2023-03-11T08:44:56;41.15;;;17.70;;
51692;SDS011;37777;53.066;21.638;2023-03-11T08:51:58;9.95;;;6.82;;
51692;SDS011;37777;53.066;21.638;2023-03-11T08:59:00;41.53;;;14.95;;
51692;SDS011;37777;53.066;21.638;2023-03-11T09:06:03;28.67;;;11.98;;
51692;SDS011;37777;53.066;21.638;2023-03-11T09:13:08;29.10;;;11.55;;
51692;SDS011;37777;53.066;21.638;2023-03-11T09:20:11;21.20;;;8.88;;
51692;SDS011;37777;53.066;21.638;2023-03-11T09:27:14;24.98;;;9.02;;
51692;SDS011;37777;53.066;21.638;2023-03-11T09:34:16;26.75;;;9.02;;
51692;SDS011;37777;53.066;21.638;2023-03-11T09:41:21;17.58;;;8.15;;
51692;SDS011;37777;53.066;21.638;2023-03-11T09:55:42;17.33;;;6.80;;
51692;SDS011;37777;53.066;21.638;2023-03-11T10:02:45;10.50;;;6.35;;
51692;SDS011;37777;53.066;21.638;2023-03-11T10:09:50;9.55;;;6.97;;
51692;SDS011;37777;53.066;21.638;2023-03-11T10:16:55;7.47;;;5.63;;
51692;SDS011;37777;53.066;21.638;2023-03-11T10:38:14;8.35;;;5.55;;
51692;SDS011;37777;53.066;21.638;2023-03-11T10:45:17;7.22;;;4.88;;
51692;SDS011;37777;53.066;21.638;2023-03-11T10:52:21;5.05;;;4.43;;
51692;SDS011;37777;53.066;21.638;2023-03-11T10:59:25;7.05;;;6.00;;
51692;SDS011;37777;53.066;21.638;2023-03-11T11:06:34;8.95;;;6.15;;
51692;SDS011;37777;53.066;21.638;2023-03-11T11:13:37;3.72;;;3.40;;
51692;SDS011;37777;53.066;21.638;2023-03-11T11:20:39;6.35;;;4.53;;
51692;SDS011;37777;53.066;21.638;2023-03-11T11:28:19;5.97;;;5.03;;
51692;SDS011;37777;53.066;21.638;2023-03-11T11:35:23;8.00;;;5.10;;
51692;SDS011;37777;53.066;21.638;2023-03-11T11:42:28;8.13;;;5.20;;
51692;SDS011;37777;53.066;21.638;2023-03-11T11:49:35;7.90;;;5.60;;
51692;SDS011;37777;53.066;21.638;2023-03-11T11:56:42;13.13;;;5.65;;
51692;SDS011;37777;53.066;21.638;2023-03-11T12:04:53;11.30;;;6.25;;
51692;SDS011;37777;53.066;21.638;2023-03-11T12:11:41;8.48;;;6.10;;
51692;SDS011;37777;53.066;21.638;2023-03-11T12:18:55;10.40;;;7.18;;
51692;SDS011;37777;53.066;21.638;2023-03-11T12:26:22;8.45;;;6.03;;
51692;SDS011;37777;53.066;21.638;2023-03-11T12:33:45;8.23;;;6.07;;
51692;SDS011;37777;53.066;21.638;2023-03-11T12:48:49;12.10;;;6.53;;
51692;SDS011;37777;53.066;21.638;2023-03-11T13:03:41;13.50;;;6.47;;
51692;SDS011;37777;53.066;21.638;2023-03-11T13:10:55;15.32;;;7.78;;
51692;SDS011;37777;53.066;21.638;2023-03-11T13:25:37;15.25;;;6.50;;
51692;SDS011;37777;53.066;21.638;2023-03-11T13:40:43;22.17;;;8.32;;
51692;SDS011;37777;53.066;21.638;2023-03-11T13:47:49;4.63;;;4.15;;
51692;SDS011;37777;53.066;21.638;2023-03-11T13:54:58;11.15;;;6.07;;
51692;SDS011;37777;53.066;21.638;2023-03-11T14:02:17;7.18;;;5.43;;
51692;SDS011;37777;53.066;21.638;2023-03-11T14:09:27;6.93;;;4.95;;
51692;SDS011;37777;53.066;21.638;2023-03-11T14:16:31;7.60;;;5.03;;
51692;SDS011;37777;53.066;21.638;2023-03-11T14:23:48;7.55;;;4.88;;
51692;SDS011;37777;53.066;21.638;2023-03-11T14:30:55;8.15;;;5.50;;
51692;SDS011;37777;53.066;21.638;2023-03-11T14:37:59;4.13;;;3.72;;
51692;SDS011;37777;53.066;21.638;2023-03-11T14:45:02;6.05;;;4.70;;
51692;SDS011;37777;53.066;21.638;2023-03-11T14:52:59;6.00;;;4.60;;
51692;SDS011;37777;53.066;21.638;2023-03-11T15:06:49;5.70;;;4.22;;
51692;SDS011;37777;53.066;21.638;2023-03-11T15:13:51;6.88;;;5.03;;
51692;SDS011;37777;53.066;21.638;2023-03-11T15:21:05;7.15;;;5.25;;
51692;SDS011;37777;53.066;21.638;2023-03-11T15:28:23;8.20;;;5.07;;
51692;SDS011;37777;53.066;21.638;2023-03-11T15:35:29;5.90;;;4.47;;
51692;SDS011;37777;53.066;21.638;2023-03-11T15:42:32;5.15;;;3.92;;
51692;SDS011;37777;53.066;21.638;2023-03-11T15:49:45;6.18;;;4.45;;
51692;SDS011;37777;53.066;21.638;2023-03-11T15:56:52;5.10;;;4.50;;
51692;SDS011;37777;53.066;21.638;2023-03-11T16:04:05;6.45;;;3.83;;
51692;SDS011;37777;53.066;21.638;2023-03-11T16:11:21;3.92;;;3.53;;
51692;SDS011;37777;53.066;21.638;2023-03-11T16:18:29;4.38;;;3.55;;
51692;SDS011;37777;53.066;21.638;2023-03-11T16:25:37;8.00;;;4.32;;
51692;SDS011;37777;53.066;21.638;2023-03-11T16:32:46;3.85;;;3.50;;
51692;SDS011;37777;53.066;21.638;2023-03-11T16:39:48;5.70;;;3.42;;
51692;SDS011;37777;53.066;21.638;2023-03-11T16:46:51;4.72;;;3.30;;
51692;SDS011;37777;53.066;21.638;2023-03-11T16:53:54;5.50;;;3.45;;
51692;SDS011;37777;53.066;21.638;2023-03-11T17:00:56;4.00;;;3.50;;
51692;SDS011;37777;53.066;21.638;2023-03-11T17:07:59;4.95;;;3.67;;
51692;SDS011;37777;53.066;21.638;2023-03-11T17:15:05;8.55;;;3.80;;
51692;SDS011;37777;53.066;21.638;2023-03-11T17:22:09;7.45;;;3.72;;
51692;SDS011;37777;53.066;21.638;2023-03-11T17:29:13;4.63;;;3.78;;
51692;SDS011;37777;53.066;21.638;2023-03-11T17:36:22;4.22;;;3.83;;
51692;SDS011;37777;53.066;21.638;2023-03-11T17:43:30;4.38;;;2.92;;
51692;SDS011;37777;53.066;21.638;2023-03-11T17:50:39;4.22;;;3.85;;
51692;SDS011;37777;53.066;21.638;2023-03-11T17:57:48;12.68;;;3.70;;
51692;SDS011;37777;53.066;21.638;2023-03-11T18:04:57;3.90;;;3.10;;
51692;SDS011;37777;53.066;21.638;2023-03-11T18:12:08;6.38;;;3.80;;
51692;SDS011;37777;53.066;21.638;2023-03-11T18:19:16;3.47;;;3.17;;
51692;SDS011;37777;53.066;21.638;2023-03-11T18:26:31;3.85;;;3.53;;
51692;SDS011;37777;53.066;21.638;2023-03-11T18:33:38;8.07;;;3.70;;
51692;SDS011;37777;53.066;21.638;2023-03-11T18:40:54;7.38;;;4.30;;
51692;SDS011;37777;53.066;21.638;2023-03-11T18:48:06;3.72;;;2.85;;
51692;SDS011;37777;53.066;21.638;2023-03-11T18:55:13;8.25;;;4.80;;
51692;SDS011;37777;53.066;21.638;2023-03-11T19:02:28;4.90;;;3.92;;
51692;SDS011;37777;53.066;21.638;2023-03-11T19:09:33;8.38;;;4.40;;
51692;SDS011;37777;53.066;21.638;2023-03-11T19:16:43;4.35;;;3.95;;
51692;SDS011;37777;53.066;21.638;2023-03-11T19:23:47;7.00;;;3.33;;
51692;SDS011;37777;53.066;21.638;2023-03-11T19:30:56;3.80;;;3.28;;
51692;SDS011;37777;53.066;21.638;2023-03-11T19:38:09;3.97;;;2.85;;
51692;SDS011;37777;53.066;21.638;2023-03-11T19:45:12;3.67;;;2.72;;
51692;SDS011;37777;53.066;21.638;2023-03-11T19:52:15;5.30;;;3.63;;
51692;SDS011;37777;53.066;21.638;2023-03-11T19:59:19;3.45;;;3.08;;
51692;SDS011;37777;53.066;21.638;2023-03-11T20:06:24;12.32;;;3.85;;
51692;SDS011;37777;53.066;21.638;2023-03-11T20:13:30;5.13;;;4.10;;
51692;SDS011;37777;53.066;21.638;2023-03-11T20:20:37;8.02;;;3.95;;
51692;SDS011;37777;53.066;21.638;2023-03-11T20:27:41;5.65;;;4.15;;
51692;SDS011;37777;53.066;21.638;2023-03-11T20:34:45;10.95;;;3.40;;
51692;SDS011;37777;53.066;21.638;2023-03-11T20:41:52;4.78;;;3.58;;
51692;SDS011;37777;53.066;21.638;2023-03-11T20:49:01;8.83;;;3.47;;
51692;SDS011;37777;53.066;21.638;2023-03-11T20:56:07;6.57;;;4.00;;
51692;SDS011;37777;53.066;21.638;2023-03-11T21:03:12;6.82;;;3.22;;
51692;SDS011;37777;53.066;21.638;2023-03-11T21:10:16;19.38;;;4.47;;
51692;SDS011;37777;53.066;21.638;2023-03-11T21:17:20;3.60;;;2.60;;
51692;SDS011;37777;53.066;21.638;2023-03-11T21:24:22;4.47;;;3.38;;
51692;SDS011;37777;53.066;21.638;2023-03-11T21:31:26;5.75;;;3.65;;
51692;SDS011;37777;53.066;21.638;2023-03-11T21:38:30;6.88;;;4.47;;
51692;SDS011;37777;53.066;21.638;2023-03-11T21:45:32;4.80;;;4.20;;
51692;SDS011;37777;53.066;21.638;2023-03-11T21:52:35;7.22;;;4.50;;
51692;SDS011;37777;53.066;21.638;2023-03-11T21:59:37;6.88;;;4.82;;
51692;SDS011;37777;53.066;21.638;2023-03-11T22:06:39;4.22;;;3.53;;
51692;SDS011;37777;53.066;21.638;2023-03-11T22:13:42;3.22;;;2.95;;
51692;SDS011;37777;53.066;21.638;2023-03-11T22:20:49;5.82;;;4.15;;
51692;SDS011;37777;53.066;21.638;2023-03-11T22:27:54;2.65;;;2.55;;
51692;SDS011;37777;53.066;21.638;2023-03-11T22:35:06;10.05;;;4.93;;
51692;SDS011;37777;53.066;21.638;2023-03-11T22:42:11;5.50;;;4.25;;
51692;SDS011;37777;53.066;21.638;2023-03-11T22:49:15;3.70;;;3.40;;
51692;SDS011;37777;53.066;21.638;2023-03-11T22:56:19;7.35;;;3.78;;
51692;SDS011;37777;53.066;21.638;2023-03-11T23:03:27;8.75;;;3.60;;
51692;SDS011;37777;53.066;21.638;2023-03-11T23:10:30;12.20;;;5.35;;
51692;SDS011;37777;53.066;21.638;2023-03-11T23:17:32;9.73;;;5.40;;
51692;SDS011;37777;53.066;21.638;2023-03-11T23:24:34;4.50;;;4.10;;
51692;SDS011;37777;53.066;21.638;2023-03-11T23:31:36;2.55;;;2.45;;
51692;SDS011;37777;53.066;21.638;2023-03-11T23:38:38;2.78;;;2.67;;
51692;SDS011;37777;53.066;21.638;2023-03-11T23:45:41;7.75;;;5.22;;
51692;SDS011;37777;53.066;21.638;2023-03-11T23:52:43;5.90;;;3.60;;
51692;SDS011;37777;53.066;21.638;2023-03-11T23:59:45;5.82;;;3.78;;
